sensor_id;sensor_type;location;lat;lon;timestamp;pressure;altitude;pressure_sealevel;temperature;humidity
73674;BME280;61975;48.660;10.164;2022-12-11T00:01:55;94796.84;;;-0.94;92.00
73674;BME280;61975;48.660;10.164;2022-12-11T00:04:21;94799.91;;;-0.95;91.82
73674;BME280;61975;48.660;10.164;2022-12-11T00:06:46;94799.09;;;-0.96;91.08
73674;BME280;61975;48.660;10.164;2022-12-11T00:09:15;94800.84;;;-0.91;91.21
73674;BME280;61975;48.660;10.164;2022-12-11T00:11:41;94804.38;;;-0.91;91.04
73674;BME280;61975;48.660;10.164;2022-12-11T00:14:06;94811.06;;;-0.88;90.19
73674;BME280;61975;48.660;10.164;2022-12-11T00:16:32;94817.50;;;-0.93;90.22
73674;BME280;61975;48.660;10.164;2022-12-11T00:18:57;94817.72;;;-0.98;91.67
73674;BME280;61975;48.660;10.164;2022-12-11T00:21:22;94813.19;;;-0.94;90.82
73674;BME280;61975;48.660;10.164;2022-12-11T00:23:48;94815.06;;;-0.86;90.27
73674;BME280;61975;48.660;10.164;2022-12-11T00:26:14;94814.94;;;-0.89;87.83
73674;BME280;61975;48.660;10.164;2022-12-11T00:28:41;94808.22;;;-0.92;88.28
73674;BME280;61975;48.660;10.164;2022-12-11T00:31:08;94804.75;;;-1.01;88.63
73674;BME280;61975;48.660;10.164;2022-12-11T00:33:35;94801.38;;;-0.98;89.06
73674;BME280;61975;48.660;10.164;2022-12-11T00:36:00;94796.84;;;-0.94;88.79
73674;BME280;61975;48.660;10.164;2022-12-11T00:38:26;94790.75;;;-0.91;87.98
73674;BME280;61975;48.660;10.164;2022-12-11T00:40:52;94797.28;;;-0.83;87.94
73674;BME280;61975;48.660;10.164;2022-12-11T00:43:17;94797.78;;;-0.90;88.33
73674;BME280;61975;48.660;10.164;2022-12-11T00:45:44;94795.53;;;-0.88;89.01
73674;BME280;61975;48.660;10.164;2022-12-11T00:48:11;94792.34;;;-0.90;87.59
73674;BME280;61975;48.660;10.164;2022-12-11T00:50:37;94798.44;;;-0.93;87.67
73674;BME280;61975;48.660;10.164;2022-12-11T00:53:04;94797.50;;;-0.97;88.33
73674;BME280;61975;48.660;10.164;2022-12-11T00:55:30;94799.09;;;-0.96;88.18
73674;BME280;61975;48.660;10.164;2022-12-11T00:57:56;94793.53;;;-0.99;89.17
73674;BME280;61975;48.660;10.164;2022-12-11T01:00:23;94797.19;;;-0.95;89.14
73674;BME280;61975;48.660;10.164;2022-12-11T01:02:49;94798.00;;;-0.95;87.71
73674;BME280;61975;48.660;10.164;2022-12-11T01:05:14;94797.50;;;-0.97;87.67
73674;BME280;61975;48.660;10.164;2022-12-11T01:07:39;94803.88;;;-0.93;87.05
73674;BME280;61975;48.660;10.164;2022-12-11T01:10:05;94811.06;;;-0.88;86.54
73674;BME280;61975;48.660;10.164;2022-12-11T01:13:05;94804.81;;;-0.89;86.05
73674;BME280;61975;48.660;10.164;2022-12-11T01:15:39;94807.53;;;-0.89;86.37
73674;BME280;61975;48.660;10.164;2022-12-11T01:18:05;94808.03;;;-0.87;86.29
73674;BME280;61975;48.660;10.164;2022-12-11T01:20:30;94804.81;;;-0.89;86.36
73674;BME280;61975;48.660;10.164;2022-12-11T01:22:57;94815.06;;;-0.86;85.67
73674;BME280;61975;48.660;10.164;2022-12-11T01:25:24;94815.06;;;-0.86;85.85
73674;BME280;61975;48.660;10.164;2022-12-11T01:27:51;94819.06;;;-0.83;86.13
73674;BME280;61975;48.660;10.164;2022-12-11T01:30:18;94829.47;;;-0.85;86.01
73674;BME280;61975;48.660;10.164;2022-12-11T01:32:44;94827.09;;;-0.87;86.02
73674;BME280;61975;48.660;10.164;2022-12-11T01:35:10;94827.69;;;-0.81;85.44
73674;BME280;61975;48.660;10.164;2022-12-11T01:37:36;94825.84;;;-0.89;85.91
73674;BME280;61975;48.660;10.164;2022-12-11T01:40:03;94836.72;;;-0.89;86.35
73674;BME280;61975;48.660;10.164;2022-12-11T01:42:29;94834.31;;;-0.91;84.59
73674;BME280;61975;48.660;10.164;2022-12-11T01:47:40;94834.84;;;-0.97;85.07
73674;BME280;61975;48.660;10.164;2022-12-11T01:50:06;94836.63;;;-1.01;85.10
73674;BME280;61975;48.660;10.164;2022-12-11T01:52:32;94836.44;;;-0.96;84.65
73674;BME280;61975;48.660;10.164;2022-12-11T01:54:57;94824.75;;;-0.97;84.66
73674;BME280;61975;48.660;10.164;2022-12-11T01:57:23;94831.78;;;-0.96;84.59
73674;BME280;61975;48.660;10.164;2022-12-11T01:59:49;94824.75;;;-0.97;85.51
73674;BME280;61975;48.660;10.164;2022-12-11T02:02:19;94825.56;;;-0.96;84.28
73674;BME280;61975;48.660;10.164;2022-12-11T02:04:46;94831.44;;;-0.94;84.29
73674;BME280;61975;48.660;10.164;2022-12-11T02:07:13;94833.25;;;-0.98;84.48
73674;BME280;61975;48.660;10.164;2022-12-11T02:09:41;94834.31;;;-0.91;83.94
73674;BME280;61975;48.660;10.164;2022-12-11T02:22:19;94847.56;;;-1.10;86.97
73674;BME280;61975;48.660;10.164;2022-12-11T02:25:19;94842.00;;;-1.13;87.14
73674;BME280;61975;48.660;10.164;2022-12-11T02:27:49;94843.19;;;-1.23;86.85
73674;BME280;61975;48.660;10.164;2022-12-11T02:30:21;94850.94;;;-1.13;86.16
73674;BME280;61975;48.660;10.164;2022-12-11T02:32:57;94836.59;;;-1.22;85.79
73674;BME280;61975;48.660;10.164;2022-12-11T02:35:32;94844.78;;;-1.22;86.02
73674;BME280;61975;48.660;10.164;2022-12-11T02:38:02;94840.31;;;-1.26;85.55
73674;BME280;61975;48.660;10.164;2022-12-11T02:40:30;94842.97;;;-1.18;83.37
73674;BME280;61975;48.660;10.164;2022-12-11T02:42:59;94844.50;;;-1.29;82.34
73674;BME280;61975;48.660;10.164;2022-12-11T02:45:27;94841.28;;;-1.31;82.28
73674;BME280;61975;48.660;10.164;2022-12-11T02:47:53;94836.66;;;-1.30;80.76
73674;BME280;61975;48.660;10.164;2022-12-11T02:50:21;94831.69;;;-1.28;77.81
73674;BME280;61975;48.660;10.164;2022-12-11T02:52:50;94832.13;;;-1.26;78.95
73674;BME280;61975;48.660;10.164;2022-12-11T02:55:18;94834.69;;;-1.21;76.56
73674;BME280;61975;48.660;10.164;2022-12-11T02:57:48;94834.81;;;-1.18;77.52
73674;BME280;61975;48.660;10.164;2022-12-11T03:00:16;94839.13;;;-1.17;77.86
73674;BME280;61975;48.660;10.164;2022-12-11T03:02:43;94845.72;;;-1.18;76.53
73674;BME280;61975;48.660;10.164;2022-12-11T03:05:10;94845.06;;;-1.15;76.34
73674;BME280;61975;48.660;10.164;2022-12-11T03:07:39;94842.44;;;-1.11;76.05
73674;BME280;61975;48.660;10.164;2022-12-11T03:10:08;94844.69;;;-1.05;76.10
73674;BME280;61975;48.660;10.164;2022-12-11T03:12:39;94850.78;;;-1.08;75.76
73674;BME280;61975;48.660;10.164;2022-12-11T03:15:09;94845.59;;;-1.01;76.15
73674;BME280;61975;48.660;10.164;2022-12-11T03:18:00;94848.09;;;-1.16;76.40
73674;BME280;61975;48.660;10.164;2022-12-11T03:20:32;94843.19;;;-1.23;76.59
73674;BME280;61975;48.660;10.164;2022-12-11T03:26:02;94840.13;;;-1.21;79.01
73674;BME280;61975;48.660;10.164;2022-12-11T03:28:50;94838.69;;;-1.19;79.25
73674;BME280;61975;48.660;10.164;2022-12-11T03:31:29;94836.56;;;-1.13;80.39
73674;BME280;61975;48.660;10.164;2022-12-11T03:33:59;94831.81;;;-1.25;81.17
73674;BME280;61975;48.660;10.164;2022-12-11T03:36:31;94831.84;;;-1.33;81.44
73674;BME280;61975;48.660;10.164;2022-12-11T03:39:00;94839.38;;;-1.30;82.29
73674;BME280;61975;48.660;10.164;2022-12-11T03:41:28;94847.66;;;-1.27;82.64
73674;BME280;61975;48.660;10.164;2022-12-11T03:43:56;94836.94;;;-1.23;83.41
73674;BME280;61975;48.660;10.164;2022-12-11T03:46:27;94841.78;;;-1.29;83.51
73674;BME280;61975;48.660;10.164;2022-12-11T03:48:58;94845.13;;;-1.32;83.81
73674;BME280;61975;48.660;10.164;2022-12-11T03:51:25;94841.94;;;-1.34;84.13
73674;BME280;61975;48.660;10.164;2022-12-11T03:53:54;94838.44;;;-1.34;85.34
73674;BME280;61975;48.660;10.164;2022-12-11T03:56:21;94835.22;;;-1.36;84.04
73674;BME280;61975;48.660;10.164;2022-12-11T03:58:48;94838.00;;;-1.45;84.14
73674;BME280;61975;48.660;10.164;2022-12-11T04:01:14;94833.69;;;-1.46;84.67
73674;BME280;61975;48.660;10.164;2022-12-11T04:03:39;94836.94;;;-1.52;84.53
73674;BME280;61975;48.660;10.164;2022-12-11T04:06:05;94830.69;;;-1.53;84.89
73674;BME280;61975;48.660;10.164;2022-12-11T04:08:30;94825.22;;;-1.53;86.16
73674;BME280;61975;48.660;10.164;2022-12-11T04:10:56;94830.38;;;-1.60;85.47
73674;BME280;61975;48.660;10.164;2022-12-11T04:13:40;94829.91;;;-1.62;85.16
73674;BME280;61975;48.660;10.164;2022-12-11T04:16:06;94823.53;;;-1.66;85.47
73674;BME280;61975;48.660;10.164;2022-12-11T04:18:32;94828.66;;;-1.73;85.26
73674;BME280;61975;48.660;10.164;2022-12-11T04:21:16;94823.44;;;-1.78;86.43
73674;BME280;61975;48.660;10.164;2022-12-11T04:24:00;94824.84;;;-1.80;85.81
73674;BME280;61975;48.660;10.164;2022-12-11T04:26:51;94825.22;;;-1.82;86.82
73674;BME280;61975;48.660;10.164;2022-12-11T04:29:17;94818.50;;;-1.93;87.83
73674;BME280;61975;48.660;10.164;2022-12-11T04:31:42;94821.41;;;-1.98;88.82
73674;BME280;61975;48.660;10.164;2022-12-11T04:34:08;94823.81;;;-2.05;89.27
73674;BME280;61975;48.660;10.164;2022-12-11T04:36:33;94823.97;;;-2.10;89.75
73674;BME280;61975;48.660;10.164;2022-12-11T04:38:59;94828.63;;;-2.10;89.49
73674;BME280;61975;48.660;10.164;2022-12-11T04:41:24;94823.53;;;-2.12;88.27
73674;BME280;61975;48.660;10.164;2022-12-11T04:43:49;94826.53;;;-2.05;88.30
73674;BME280;61975;48.660;10.164;2022-12-11T04:46:20;94812.97;;;-2.13;88.12
73674;BME280;61975;48.660;10.164;2022-12-11T04:48:46;94805.47;;;-2.16;88.24
73674;BME280;61975;48.660;10.164;2022-12-11T04:51:12;94812.66;;;-2.20;88.90
73674;BME280;61975;48.660;10.164;2022-12-11T04:53:37;94806.31;;;-2.33;89.62
73674;BME280;61975;48.660;10.164;2022-12-11T04:56:07;94817.19;;;-2.41;91.52
73674;BME280;61975;48.660;10.164;2022-12-11T04:58:33;94809.50;;;-2.48;92.07
73674;BME280;61975;48.660;10.164;2022-12-11T05:03:33;94812.91;;;-2.51;92.13
73674;BME280;61975;48.660;10.164;2022-12-11T05:05:59;94809.19;;;-2.55;92.25
73674;BME280;61975;48.660;10.164;2022-12-11T05:08:24;94810.19;;;-2.59;92.18
73674;BME280;61975;48.660;10.164;2022-12-11T05:10:57;94813.69;;;-2.59;92.42
73674;BME280;61975;48.660;10.164;2022-12-11T05:13:23;94811.78;;;-2.58;91.35
73674;BME280;61975;48.660;10.164;2022-12-11T05:15:48;94812.09;;;-2.60;90.71
73674;BME280;61975;48.660;10.164;2022-12-11T05:18:14;94819.13;;;-2.59;90.45
73674;BME280;61975;48.660;10.164;2022-12-11T05:20:39;94813.34;;;-2.57;90.21
73674;BME280;61975;48.660;10.164;2022-12-11T05:23:05;94819.44;;;-2.60;90.54
73674;BME280;61975;48.660;10.164;2022-12-11T05:25:30;94814.81;;;-2.60;90.63
73674;BME280;61975;48.660;10.164;2022-12-11T05:27:55;94820.06;;;-2.55;91.09
73674;BME280;61975;48.660;10.164;2022-12-11T05:30:21;94821.38;;;-2.52;89.94
73674;BME280;61975;48.660;10.164;2022-12-11T05:32:46;94824.09;;;-2.52;89.06
73674;BME280;61975;48.660;10.164;2022-12-11T05:35:11;94824.09;;;-2.61;90.58
73674;BME280;61975;48.660;10.164;2022-12-11T05:37:37;94825.50;;;-2.63;91.69
73674;BME280;61975;48.660;10.164;2022-12-11T05:40:03;94822.00;;;-2.64;90.73
73674;BME280;61975;48.660;10.164;2022-12-11T05:42:31;94822.47;;;-2.62;91.29
73674;BME280;61975;48.660;10.164;2022-12-11T05:44:56;94823.91;;;-2.56;90.82
73674;BME280;61975;48.660;10.164;2022-12-11T05:47:22;94814.63;;;-2.55;90.09
73674;BME280;61975;48.660;10.164;2022-12-11T05:49:47;94821.69;;;-2.54;90.19
73674;BME280;61975;48.660;10.164;2022-12-11T05:52:12;94818.31;;;-2.51;90.17
73674;BME280;61975;48.660;10.164;2022-12-11T05:54:38;94814.47;;;-2.50;90.07
73674;BME280;61975;48.660;10.164;2022-12-11T05:57:03;94812.72;;;-2.46;90.16
73674;BME280;61975;48.660;10.164;2022-12-11T05:59:28;94809.50;;;-2.48;90.00
73674;BME280;61975;48.660;10.164;2022-12-11T06:01:54;94811.13;;;-2.47;90.00
73674;BME280;61975;48.660;10.164;2022-12-11T06:04:19;94806.47;;;-2.46;90.94
73674;BME280;61975;48.660;10.164;2022-12-11T06:06:45;94811.75;;;-2.50;90.40
73674;BME280;61975;48.660;10.164;2022-12-11T06:09:13;94814.31;;;-2.53;91.41
73674;BME280;61975;48.660;10.164;2022-12-11T06:11:39;94813.69;;;-2.59;92.75
73674;BME280;61975;48.660;10.164;2022-12-11T06:14:04;94817.03;;;-2.62;92.81
73674;BME280;61975;48.660;10.164;2022-12-11T06:16:30;94814.97;;;-2.56;92.55
73674;BME280;61975;48.660;10.164;2022-12-11T06:18:56;94815.13;;;-2.53;91.87
73674;BME280;61975;48.660;10.164;2022-12-11T06:21:30;94818.00;;;-2.49;91.63
73674;BME280;61975;48.660;10.164;2022-12-11T06:23:58;94820.22;;;-2.43;91.06
73674;BME280;61975;48.660;10.164;2022-12-11T06:26:24;94816.25;;;-2.45;90.58
73674;BME280;61975;48.660;10.164;2022-12-11T06:28:50;94813.66;;;-2.42;90.67
73674;BME280;61975;48.660;10.164;2022-12-11T06:31:16;94814.94;;;-2.39;90.30
73674;BME280;61975;48.660;10.164;2022-12-11T06:33:42;94802.31;;;-2.35;90.27
73674;BME280;61975;48.660;10.164;2022-12-11T06:36:11;94798.63;;;-2.39;90.67
73674;BME280;61975;48.660;10.164;2022-12-11T06:38:37;94804.22;;;-2.36;90.81
73674;BME280;61975;48.660;10.164;2022-12-11T06:41:04;94801.19;;;-2.34;90.20
73674;BME280;61975;48.660;10.164;2022-12-11T06:43:31;94794.31;;;-2.32;90.97
73674;BME280;61975;48.660;10.164;2022-12-11T06:45:57;94783.59;;;-2.28;89.52
73674;BME280;61975;48.660;10.164;2022-12-11T06:48:23;94784.06;;;-2.26;90.00
73674;BME280;61975;48.660;10.164;2022-12-11T06:50:48;94776.22;;;-2.28;90.16
73674;BME280;61975;48.660;10.164;2022-12-11T06:53:14;94784.38;;;-2.28;89.85
73674;BME280;61975;48.660;10.164;2022-12-11T06:55:40;94787.28;;;-2.33;88.63
73674;BME280;61975;48.660;10.164;2022-12-11T06:58:06;94787.44;;;-2.38;89.48
73674;BME280;61975;48.660;10.164;2022-12-11T07:00:34;94787.44;;;-2.46;89.84
73674;BME280;61975;48.660;10.164;2022-12-11T07:03:00;94787.94;;;-2.53;90.31
73674;BME280;61975;48.660;10.164;2022-12-11T07:05:25;94783.78;;;-2.59;91.24
73674;BME280;61975;48.660;10.164;2022-12-11T07:07:55;94785.56;;;-2.63;90.42
73674;BME280;61975;48.660;10.164;2022-12-11T07:10:21;94788.28;;;-2.71;91.14
73674;BME280;61975;48.660;10.164;2022-12-11T07:12:46;94793.91;;;-2.76;92.00
73674;BME280;61975;48.660;10.164;2022-12-11T07:15:11;94786.84;;;-2.78;91.40
73674;BME280;61975;48.660;10.164;2022-12-11T07:17:38;94792.78;;;-2.84;92.66
73674;BME280;61975;48.660;10.164;2022-12-11T07:20:04;94793.09;;;-2.94;92.78
73674;BME280;61975;48.660;10.164;2022-12-11T07:22:29;94788.16;;;-2.92;92.84
73674;BME280;61975;48.660;10.164;2022-12-11T07:24:55;94790.88;;;-2.92;92.92
73674;BME280;61975;48.660;10.164;2022-12-11T07:27:21;94812.59;;;-2.92;93.09
73674;BME280;61975;48.660;10.164;2022-12-11T07:29:46;94823.59;;;-2.89;93.88
73674;BME280;61975;48.660;10.164;2022-12-11T07:32:11;94813.84;;;-2.81;92.86
73674;BME280;61975;48.660;10.164;2022-12-11T07:34:37;94812.41;;;-2.70;92.10
73674;BME280;61975;48.660;10.164;2022-12-11T07:37:03;94815.13;;;-2.61;92.45
73674;BME280;61975;48.660;10.164;2022-12-11T07:39:28;94817.84;;;-2.53;91.94
73674;BME280;61975;48.660;10.164;2022-12-11T07:41:53;94817.00;;;-2.45;92.06
73674;BME280;61975;48.660;10.164;2022-12-11T07:44:19;94831.72;;;-2.37;92.08
73674;BME280;61975;48.660;10.164;2022-12-11T07:46:44;94826.28;;;-2.29;91.83
73674;BME280;61975;48.660;10.164;2022-12-11T07:49:10;94833.16;;;-2.23;92.24
73674;BME280;61975;48.660;10.164;2022-12-11T07:51:36;94823.69;;;-2.17;91.33
73674;BME280;61975;48.660;10.164;2022-12-11T07:54:09;94824.47;;;-2.08;91.43
73674;BME280;61975;48.660;10.164;2022-12-11T07:56:36;94821.13;;;-2.13;92.16
73674;BME280;61975;48.660;10.164;2022-12-11T07:59:03;94820.16;;;-2.09;92.01
73674;BME280;61975;48.660;10.164;2022-12-11T08:01:30;94829.88;;;-1.99;91.80
73674;BME280;61975;48.660;10.164;2022-12-11T08:03:56;94825.38;;;-1.95;91.62
73674;BME280;61975;48.660;10.164;2022-12-11T08:06:30;94829.38;;;-1.93;92.37
73674;BME280;61975;48.660;10.164;2022-12-11T08:08:57;94827.50;;;-2.01;91.86
73674;BME280;61975;48.660;10.164;2022-12-11T08:11:23;94826.84;;;-1.98;91.92
73674;BME280;61975;48.660;10.164;2022-12-11T08:13:49;94821.84;;;-1.87;91.56
73674;BME280;61975;48.660;10.164;2022-12-11T08:16:15;94817.81;;;-1.81;91.15
73674;BME280;61975;48.660;10.164;2022-12-11T08:18:41;94828.66;;;-1.73;90.36
73674;BME280;61975;48.660;10.164;2022-12-11T08:21:09;94826.72;;;-1.64;89.33
73674;BME280;61975;48.660;10.164;2022-12-11T08:23:35;94824.91;;;-1.51;89.41
73674;BME280;61975;48.660;10.164;2022-12-11T08:26:02;94823.59;;;-1.45;88.29
73674;BME280;61975;48.660;10.164;2022-12-11T08:28:28;94821.00;;;-1.42;88.78
73674;BME280;61975;48.660;10.164;2022-12-11T08:30:53;94815.69;;;-1.30;88.84
73674;BME280;61975;48.660;10.164;2022-12-11T08:33:19;94810.19;;;-1.21;87.59
73674;BME280;61975;48.660;10.164;2022-12-11T08:35:44;94819.66;;;-1.27;88.20
73674;BME280;61975;48.660;10.164;2022-12-11T08:38:10;94808.78;;;-1.27;87.11
73674;BME280;61975;48.660;10.164;2022-12-11T08:40:36;94811.81;;;-1.29;86.09
73674;BME280;61975;48.660;10.164;2022-12-11T08:43:01;94807.69;;;-1.35;87.20
73674;BME280;61975;48.660;10.164;2022-12-11T08:45:27;94816.66;;;-1.34;86.93
73674;BME280;61975;48.660;10.164;2022-12-11T08:47:52;94818.72;;;-1.31;86.59
73674;BME280;61975;48.660;10.164;2022-12-11T08:50:18;94824.50;;;-1.33;86.50
73674;BME280;61975;48.660;10.164;2022-12-11T08:52:44;94824.63;;;-1.29;85.23
73674;BME280;61975;48.660;10.164;2022-12-11T08:55:09;94816.97;;;-1.36;86.16
73674;BME280;61975;48.660;10.164;2022-12-11T08:57:34;94815.13;;;-1.44;86.56
73674;BME280;61975;48.660;10.164;2022-12-11T09:00:00;94813.97;;;-1.43;86.00
73674;BME280;61975;48.660;10.164;2022-12-11T09:02:25;94813.72;;;-1.29;86.15
73674;BME280;61975;48.660;10.164;2022-12-11T09:04:50;94814.63;;;-1.17;84.91
73674;BME280;61975;48.660;10.164;2022-12-11T09:07:16;94816.91;;;-0.98;84.13
73674;BME280;61975;48.660;10.164;2022-12-11T09:09:41;94819.34;;;-0.76;82.67
73674;BME280;61975;48.660;10.164;2022-12-11T09:12:07;94813.59;;;-0.63;82.66
73674;BME280;61975;48.660;10.164;2022-12-11T09:14:32;94812.59;;;-0.58;79.43
73674;BME280;61975;48.660;10.164;2022-12-11T09:16:58;94790.22;;;-0.64;78.31
73674;BME280;61975;48.660;10.164;2022-12-11T09:19:24;94801.81;;;-0.55;77.41
73674;BME280;61975;48.660;10.164;2022-12-11T09:21:49;94805.94;;;-0.49;76.88
73674;BME280;61975;48.660;10.164;2022-12-11T09:24:14;94799.50;;;-0.44;77.15
73674;BME280;61975;48.660;10.164;2022-12-11T09:26:40;94806.34;;;-0.38;75.09
73674;BME280;61975;48.660;10.164;2022-12-11T09:29:06;94818.19;;;-0.55;75.49
73674;BME280;61975;48.660;10.164;2022-12-11T09:31:34;94809.56;;;-0.57;74.78
73674;BME280;61975;48.660;10.164;2022-12-11T09:34:04;94801.78;;;-0.67;74.94
73674;BME280;61975;48.660;10.164;2022-12-11T09:36:30;94804.09;;;-0.57;75.75
73674;BME280;61975;48.660;10.164;2022-12-11T09:38:59;94799.59;;;-0.41;74.78
73674;BME280;61975;48.660;10.164;2022-12-11T09:41:34;94808.53;;;-0.32;78.57
73674;BME280;61975;48.660;10.164;2022-12-11T09:44:20;94794.25;;;-0.17;74.96
73674;BME280;61975;48.660;10.164;2022-12-11T09:46:49;94785.44;;;-0.02;73.44
73674;BME280;61975;48.660;10.164;2022-12-11T09:49:37;94793.22;;;0.21;73.42
73674;BME280;61975;48.660;10.164;2022-12-11T09:55:01;94786.06;;;0.40;71.60
73674;BME280;61975;48.660;10.164;2022-12-11T09:57:30;94793.69;;;0.35;69.06
73674;BME280;61975;48.660;10.164;2022-12-11T10:00:11;94793.56;;;-0.14;71.67
73674;BME280;61975;48.660;10.164;2022-12-11T10:14:16;94800.28;;;-0.44;72.90
73674;BME280;61975;48.660;10.164;2022-12-11T10:16:48;94785.06;;;-0.45;74.31
73674;BME280;61975;48.660;10.164;2022-12-11T10:19:19;94778.72;;;-0.37;73.18
